sensor_id;sensor_type;location;lat;lon;timestamp;temperature;humidity
23283;DHT22;11810;51.178;3.878;2022-12-18T00:00:27;-3.90;99.90
23283;DHT22;11810;51.178;3.878;2022-12-18T00:02:53;-3.90;99.90
23283;DHT22;11810;51.178;3.878;2022-12-18T00:05:37;-3.90;99.90
23283;DHT22;11810;51.178;3.878;2022-12-18T00:08:03;-4.10;99.90
23283;DHT22;11810;51.178;3.878;2022-12-18T00:10:29;-4.20;99.90
23283;DHT22;11810;51.178;3.878;2022-12-18T00:12:54;-4.20;99.90
23283;DHT22;11810;51.178;3.878;2022-12-18T00:15:20;-4.50;99.90
23283;DHT22;11810;51.178;3.878;2022-12-18T00:17:46;-4.60;99.90
23283;DHT22;11810;51.178;3.878;2022-12-18T00:21:38;-4.70;99.90
23283;DHT22;11810;51.178;3.878;2022-12-18T00:24:05;-4.80;99.90
23283;DHT22;11810;51.178;3.878;2022-12-18T00:26:33;-4.80;99.90
23283;DHT22;11810;51.178;3.878;2022-12-18T00:30:40;-4.80;99.90
23283;DHT22;11810;51.178;3.878;2022-12-18T00:35:40;-4.70;99.90
23283;DHT22;11810;51.178;3.878;2022-12-18T00:39:40;-4.90;99.90
23283;DHT22;11810;51.178;3.878;2022-12-18T00:43:42;-5.10;99.90
23283;DHT22;11810;51.178;3.878;2022-12-18T00:46:08;-5.30;99.90
23283;DHT22;11810;51.178;3.878;2022-12-18T00:48:33;-5.30;99.90
23283;DHT22;11810;51.178;3.878;2022-12-18T00:50:59;-5.30;99.90
23283;DHT22;11810;51.178;3.878;2022-12-18T00:56:42;-5.40;99.90
23283;DHT22;11810;51.178;3.878;2022-12-18T00:59:08;-5.60;99.90
23283;DHT22;11810;51.178;3.878;2022-12-18T01:01:34;-5.70;99.90
23283;DHT22;11810;51.178;3.878;2022-12-18T01:05:56;-5.70;99.90
23283;DHT22;11810;51.178;3.878;2022-12-18T01:08:22;-5.80;99.90
23283;DHT22;11810;51.178;3.878;2022-12-18T01:14:44;-5.90;99.90
23283;DHT22;11810;51.178;3.878;2022-12-18T01:17:46;-5.90;99.90
23283;DHT22;11810;51.178;3.878;2022-12-18T01:20:12;-5.90;99.90
23283;DHT22;11810;51.178;3.878;2022-12-18T01:22:38;-5.90;99.90
23283;DHT22;11810;51.178;3.878;2022-12-18T01:25:05;-6.00;99.90
23283;DHT22;11810;51.178;3.878;2022-12-18T01:27:32;-5.90;99.90
23283;DHT22;11810;51.178;3.878;2022-12-18T01:30:47;-5.90;99.90
23283;DHT22;11810;51.178;3.878;2022-12-18T01:33:32;-6.00;99.90
23283;DHT22;11810;51.178;3.878;2022-12-18T01:35:58;-5.90;99.90
23283;DHT22;11810;51.178;3.878;2022-12-18T01:47:47;-6.40;99.90
23283;DHT22;11810;51.178;3.878;2022-12-18T01:56:50;-6.40;99.90
23283;DHT22;11810;51.178;3.878;2022-12-18T02:01:50;-6.40;99.90
23283;DHT22;11810;51.178;3.878;2022-12-18T02:04:51;-6.40;99.90
23283;DHT22;11810;51.178;3.878;2022-12-18T02:10:29;-6.40;99.90
23283;DHT22;11810;51.178;3.878;2022-12-18T02:16:02;-6.60;99.90
23283;DHT22;11810;51.178;3.878;2022-12-18T02:18:41;-6.60;99.90
23283;DHT22;11810;51.178;3.878;2022-12-18T02:21:25;-6.50;99.90
23283;DHT22;11810;51.178;3.878;2022-12-18T02:27:54;-6.70;99.90
23283;DHT22;11810;51.178;3.878;2022-12-18T02:34:56;-6.90;99.90
23283;DHT22;11810;51.178;3.878;2022-12-18T02:39:56;-6.90;99.90
23283;DHT22;11810;51.178;3.878;2022-12-18T02:44:06;-6.90;99.90
23283;DHT22;11810;51.178;3.878;2022-12-18T02:54:10;-6.50;99.90
23283;DHT22;11810;51.178;3.878;2022-12-18T02:59:02;-6.20;99.90
23283;DHT22;11810;51.178;3.878;2022-12-18T03:08:15;-6.00;99.90
23283;DHT22;11810;51.178;3.878;2022-12-18T03:11:08;-6.10;99.90
23283;DHT22;11810;51.178;3.878;2022-12-18T03:14:00;-6.00;99.90
23283;DHT22;11810;51.178;3.878;2022-12-18T03:18:07;-6.20;99.90
23283;DHT22;11810;51.178;3.878;2022-12-18T03:20:35;-6.30;99.90
23283;DHT22;11810;51.178;3.878;2022-12-18T03:27:07;-6.20;99.90
23283;DHT22;11810;51.178;3.878;2022-12-18T03:29:38;-6.20;99.90
23283;DHT22;11810;51.178;3.878;2022-12-18T03:32:09;-6.20;99.90
23283;DHT22;11810;51.178;3.878;2022-12-18T03:34:38;-6.10;99.90
23283;DHT22;11810;51.178;3.878;2022-12-18T03:37:05;-6.00;99.90
23283;DHT22;11810;51.178;3.878;2022-12-18T03:39:32;-5.80;99.90
23283;DHT22;11810;51.178;3.878;2022-12-18T03:42:08;-5.70;99.90
23283;DHT22;11810;51.178;3.878;2022-12-18T03:49:09;-5.40;99.90
23283;DHT22;11810;51.178;3.878;2022-12-18T03:51:50;-5.20;99.90
23283;DHT22;11810;51.178;3.878;2022-12-18T03:54:19;-5.10;99.90
23283;DHT22;11810;51.178;3.878;2022-12-18T03:57:09;-5.30;99.90
23283;DHT22;11810;51.178;3.878;2022-12-18T03:59:38;-5.20;99.90
23283;DHT22;11810;51.178;3.878;2022-12-18T04:03:04;-5.10;99.90
23283;DHT22;11810;51.178;3.878;2022-12-18T04:08:06;-5.60;99.90
23283;DHT22;11810;51.178;3.878;2022-12-18T04:10:32;-5.70;99.90
23283;DHT22;11810;51.178;3.878;2022-12-18T04:16:06;-6.10;99.90
23283;DHT22;11810;51.178;3.878;2022-12-18T04:18:32;-6.30;99.90
23283;DHT22;11810;51.178;3.878;2022-12-18T04:20:58;-6.40;99.90
23283;DHT22;11810;51.178;3.878;2022-12-18T04:23:23;-6.30;99.90
23283;DHT22;11810;51.178;3.878;2022-12-18T04:25:49;-6.30;99.90
23283;DHT22;11810;51.178;3.878;2022-12-18T04:31:07;-6.10;99.90
23283;DHT22;11810;51.178;3.878;2022-12-18T04:33:33;-6.00;99.90
23283;DHT22;11810;51.178;3.878;2022-12-18T04:35:59;-5.90;99.90
23283;DHT22;11810;51.178;3.878;2022-12-18T04:40:08;-5.70;99.90
23283;DHT22;11810;51.178;3.878;2022-12-18T04:42:34;-5.70;99.90
23283;DHT22;11810;51.178;3.878;2022-12-18T04:49:10;-6.00;99.90
23283;DHT22;11810;51.178;3.878;2022-12-18T04:51:36;-6.00;99.90
23283;DHT22;11810;51.178;3.878;2022-12-18T04:54:02;-6.10;99.90
23283;DHT22;11810;51.178;3.878;2022-12-18T04:58:14;-6.20;99.90
23283;DHT22;11810;51.178;3.878;2022-12-18T05:01:13;-6.10;99.90
23283;DHT22;11810;51.178;3.878;2022-12-18T05:07:13;-6.00;99.90
23283;DHT22;11810;51.178;3.878;2022-12-18T05:09:40;-5.80;99.90
23283;DHT22;11810;51.178;3.878;2022-12-18T05:13:12;-5.80;99.90
23283;DHT22;11810;51.178;3.878;2022-12-18T05:16:14;-5.80;99.90
23283;DHT22;11810;51.178;3.878;2022-12-18T05:18:41;-5.60;99.90
23283;DHT22;11810;51.178;3.878;2022-12-18T05:21:07;-5.50;99.90
23283;DHT22;11810;51.178;3.878;2022-12-18T05:34:15;-5.60;99.90
23283;DHT22;11810;51.178;3.878;2022-12-18T05:36:40;-5.70;99.90
23283;DHT22;11810;51.178;3.878;2022-12-18T05:42:16;-6.00;99.90
23283;DHT22;11810;51.178;3.878;2022-12-18T05:44:43;-5.90;99.90
23283;DHT22;11810;51.178;3.878;2022-12-18T05:47:09;-6.00;99.90
23283;DHT22;11810;51.178;3.878;2022-12-18T05:49:34;-6.20;99.90
23283;DHT22;11810;51.178;3.878;2022-12-18T05:52:00;-6.30;99.90
23283;DHT22;11810;51.178;3.878;2022-12-18T05:54:29;-6.20;99.90
23283;DHT22;11810;51.178;3.878;2022-12-18T05:56:55;-6.20;99.90
23283;DHT22;11810;51.178;3.878;2022-12-18T05:59:21;-6.30;99.90
23283;DHT22;11810;51.178;3.878;2022-12-18T06:01:46;-6.30;99.90
23283;DHT22;11810;51.178;3.878;2022-12-18T06:04:12;-6.20;99.90
23283;DHT22;11810;51.178;3.878;2022-12-18T06:06:38;-6.20;99.90
23283;DHT22;11810;51.178;3.878;2022-12-18T06:11:21;-6.10;99.90
23283;DHT22;11810;51.178;3.878;2022-12-18T06:13:50;-6.00;99.90
23283;DHT22;11810;51.178;3.878;2022-12-18T06:16:16;-5.90;99.90
23283;DHT22;11810;51.178;3.878;2022-12-18T06:19:30;-5.80;99.90
23283;DHT22;11810;51.178;3.878;2022-12-18T06:21:56;-5.70;99.90
23283;DHT22;11810;51.178;3.878;2022-12-18T06:25:27;-5.50;99.90
23283;DHT22;11810;51.178;3.878;2022-12-18T06:30:29;-5.20;99.90
23283;DHT22;11810;51.178;3.878;2022-12-18T06:33:26;-5.20;99.90
23283;DHT22;11810;51.178;3.878;2022-12-18T06:35:53;-5.10;99.90
23283;DHT22;11810;51.178;3.878;2022-12-18T06:38:18;-5.10;99.90
23283;DHT22;11810;51.178;3.878;2022-12-18T06:44:23;-5.00;99.90
23283;DHT22;11810;51.178;3.878;2022-12-18T06:46:49;-4.90;99.90
23283;DHT22;11810;51.178;3.878;2022-12-18T06:49:14;-4.80;99.90
23283;DHT22;11810;51.178;3.878;2022-12-18T06:53:34;-4.70;99.90
23283;DHT22;11810;51.178;3.878;2022-12-18T06:56:04;-4.80;99.90
23283;DHT22;11810;51.178;3.878;2022-12-18T07:01:25;-4.60;99.90
23283;DHT22;11810;51.178;3.878;2022-12-18T07:06:33;-4.50;99.90
23283;DHT22;11810;51.178;3.878;2022-12-18T07:08:59;-4.40;99.90
23283;DHT22;11810;51.178;3.878;2022-12-18T07:11:25;-4.40;99.90
23283;DHT22;11810;51.178;3.878;2022-12-18T07:13:52;-4.40;99.90
23283;DHT22;11810;51.178;3.878;2022-12-18T07:16:21;-4.40;99.90
23283;DHT22;11810;51.178;3.878;2022-12-18T07:18:47;-4.30;99.90
23283;DHT22;11810;51.178;3.878;2022-12-18T07:21:15;-4.30;99.90
23283;DHT22;11810;51.178;3.878;2022-12-18T07:23:41;-4.20;99.90
23283;DHT22;11810;51.178;3.878;2022-12-18T07:26:10;-4.30;99.90
23283;DHT22;11810;51.178;3.878;2022-12-18T07:28:38;-4.40;99.90
23283;DHT22;11810;51.178;3.878;2022-12-18T07:31:05;-4.50;99.90
23283;DHT22;11810;51.178;3.878;2022-12-18T07:33:32;-4.60;99.90
23283;DHT22;11810;51.178;3.878;2022-12-18T07:37:30;-4.40;99.90
23283;DHT22;11810;51.178;3.878;2022-12-18T07:40:30;-4.40;99.90
23283;DHT22;11810;51.178;3.878;2022-12-18T07:43:31;-4.40;99.90
23283;DHT22;11810;51.178;3.878;2022-12-18T07:47:34;-4.40;99.90
23283;DHT22;11810;51.178;3.878;2022-12-18T07:50:33;-4.40;99.90
23283;DHT22;11810;51.178;3.878;2022-12-18T07:53:49;-4.30;99.90
23283;DHT22;11810;51.178;3.878;2022-12-18T07:56:15;-4.40;99.90
23283;DHT22;11810;51.178;3.878;2022-12-18T08:04:33;-4.20;99.90
23283;DHT22;11810;51.178;3.878;2022-12-18T08:08:34;-4.00;99.90
23283;DHT22;11810;51.178;3.878;2022-12-18T08:12:34;-4.10;99.90
23283;DHT22;11810;51.178;3.878;2022-12-18T08:15:00;-4.00;99.90
23283;DHT22;11810;51.178;3.878;2022-12-18T08:17:26;-3.90;99.90
23283;DHT22;11810;51.178;3.878;2022-12-18T08:19:52;-3.80;99.90
23283;DHT22;11810;51.178;3.878;2022-12-18T08:25:46;-3.80;99.90
23283;DHT22;11810;51.178;3.878;2022-12-18T08:28:12;-3.60;99.90
23283;DHT22;11810;51.178;3.878;2022-12-18T08:30:38;-3.50;99.90
23283;DHT22;11810;51.178;3.878;2022-12-18T08:35:37;-3.40;99.90
23283;DHT22;11810;51.178;3.878;2022-12-18T08:38:03;-3.30;99.90
23283;DHT22;11810;51.178;3.878;2022-12-18T08:42:38;-3.10;99.90
23283;DHT22;11810;51.178;3.878;2022-12-18T08:45:40;-3.00;99.90
23283;DHT22;11810;51.178;3.878;2022-12-18T08:48:06;-2.90;99.90
23283;DHT22;11810;51.178;3.878;2022-12-18T08:50:32;-2.80;99.90
23283;DHT22;11810;51.178;3.878;2022-12-18T08:53:39;-2.70;99.90
23283;DHT22;11810;51.178;3.878;2022-12-18T08:56:06;-2.50;99.90
23283;DHT22;11810;51.178;3.878;2022-12-18T09:03:21;-2.70;99.90
23283;DHT22;11810;51.178;3.878;2022-12-18T09:07:41;-2.40;99.90
23283;DHT22;11810;51.178;3.878;2022-12-18T09:10:46;-2.40;99.90
23283;DHT22;11810;51.178;3.878;2022-12-18T09:13:14;-2.40;99.90
23283;DHT22;11810;51.178;3.878;2022-12-18T09:17:42;-2.30;99.90
23283;DHT22;11810;51.178;3.878;2022-12-18T09:20:08;-2.20;99.90
23283;DHT22;11810;51.178;3.878;2022-12-18T09:27:47;-2.00;99.90
23283;DHT22;11810;51.178;3.878;2022-12-18T09:30:13;-2.00;99.90
23283;DHT22;11810;51.178;3.878;2022-12-18T09:32:39;-1.90;99.90
23283;DHT22;11810;51.178;3.878;2022-12-18T09:35:05;-1.90;99.90
23283;DHT22;11810;51.178;3.878;2022-12-18T09:38:45;-1.90;99.90
23283;DHT22;11810;51.178;3.878;2022-12-18T09:44:51;-1.80;99.90
23283;DHT22;11810;51.178;3.878;2022-12-18T09:47:34;-1.60;99.90
23283;DHT22;11810;51.178;3.878;2022-12-18T09:50:07;-1.60;99.90
23283;DHT22;11810;51.178;3.878;2022-12-18T09:56:47;-1.60;99.90
23283;DHT22;11810;51.178;3.878;2022-12-18T10:01:48;-1.50;99.90
23283;DHT22;11810;51.178;3.878;2022-12-18T10:04:15;-1.30;99.90
23283;DHT22;11810;51.178;3.878;2022-12-18T10:06:55;-1.40;99.90
23283;DHT22;11810;51.178;3.878;2022-12-18T10:22:42;-1.20;99.90
23283;DHT22;11810;51.178;3.878;2022-12-18T10:27:32;-1.10;99.90
23283;DHT22;11810;51.178;3.878;2022-12-18T10:31:52;-1.20;99.90
23283;DHT22;11810;51.178;3.878;2022-12-18T10:34:18;-1.10;99.90
23283;DHT22;11810;51.178;3.878;2022-12-18T10:40:57;-1.00;99.90
23283;DHT22;11810;51.178;3.878;2022-12-18T10:43:31;-1.00;99.90
23283;DHT22;11810;51.178;3.878;2022-12-18T10:48:26;-1.10;99.90
23283;DHT22;11810;51.178;3.878;2022-12-18T10:52:59;-1.00;99.90
23283;DHT22;11810;51.178;3.878;2022-12-18T10:55:39;-1.00;99.90
23283;DHT22;11810;51.178;3.878;2022-12-18T10:58:30;-0.90;99.90
23283;DHT22;11810;51.178;3.878;2022-12-18T11:01:13;-0.90;99.90
23283;DHT22;11810;51.178;3.878;2022-12-18T11:07:05;-0.90;99.90
23283;DHT22;11810;51.178;3.878;2022-12-18T11:10:02;-0.80;99.90
23283;DHT22;11810;51.178;3.878;2022-12-18T11:13:15;-0.90;99.90
23283;DHT22;11810;51.178;3.878;2022-12-18T11:15:42;-0.80;99.90
23283;DHT22;11810;51.178;3.878;2022-12-18T11:18:17;-0.70;99.90
23283;DHT22;11810;51.178;3.878;2022-12-18T11:20:57;-0.80;99.90
23283;DHT22;11810;51.178;3.878;2022-12-18T11:23:26;-0.80;99.90
23283;DHT22;11810;51.178;3.878;2022-12-18T11:25:57;-0.90;99.90
23283;DHT22;11810;51.178;3.878;2022-12-18T11:34:13;-0.70;99.90
23283;DHT22;11810;51.178;3.878;2022-12-18T11:36:45;-0.90;99.90
23283;DHT22;11810;51.178;3.878;2022-12-18T11:41:21;-0.50;99.90
23283;DHT22;11810;51.178;3.878;2022-12-18T11:46:06;-0.40;99.90
23283;DHT22;11810;51.178;3.878;2022-12-18T11:48:55;-0.40;99.90
23283;DHT22;11810;51.178;3.878;2022-12-18T11:52:57;-0.50;99.90
23283;DHT22;11810;51.178;3.878;2022-12-18T11:55:36;-0.30;99.90
23283;DHT22;11810;51.178;3.878;2022-12-18T12:29:13;-0.10;99.90
23283;DHT22;11810;51.178;3.878;2022-12-18T12:32:01;0.00;99.90
23283;DHT22;11810;51.178;3.878;2022-12-18T12:39:12;0.00;99.90
23283;DHT22;11810;51.178;3.878;2022-12-18T12:41:40;0.10;99.90
23283;DHT22;11810;51.178;3.878;2022-12-18T12:47:23;0.10;99.90
23283;DHT22;11810;51.178;3.878;2022-12-18T12:50:16;0.30;99.90
23283;DHT22;11810;51.178;3.878;2022-12-18T12:52:53;0.30;99.90
23283;DHT22;11810;51.178;3.878;2022-12-18T12:55:24;0.40;99.90
23283;DHT22;11810;51.178;3.878;2022-12-18T12:58:14;0.30;99.90
23283;DHT22;11810;51.178;3.878;2022-12-18T13:01:27;0.30;99.90
23283;DHT22;11810;51.178;3.878;2022-12-18T13:04:01;0.40;99.90
23283;DHT22;11810;51.178;3.878;2022-12-18T13:06:40;0.40;99.90
23283;DHT22;11810;51.178;3.878;2022-12-18T13:17:48;0.50;99.90
23283;DHT22;11810;51.178;3.878;2022-12-18T13:22:27;0.70;99.90
23283;DHT22;11810;51.178;3.878;2022-12-18T13:24:54;0.50;99.90
23283;DHT22;11810;51.178;3.878;2022-12-18T13:41:41;0.90;99.90
23283;DHT22;11810;51.178;3.878;2022-12-18T13:46:54;0.80;99.90
23283;DHT22;11810;51.178;3.878;2022-12-18T13:50:24;0.90;99.90
23283;DHT22;11810;51.178;3.878;2022-12-18T13:57:30;0.80;99.90
23283;DHT22;11810;51.178;3.878;2022-12-18T13:59:57;0.80;99.90
23283;DHT22;11810;51.178;3.878;2022-12-18T14:02:28;1.00;99.90
23283;DHT22;11810;51.178;3.878;2022-12-18T14:04:54;0.90;99.90
23283;DHT22;11810;51.178;3.878;2022-12-18T14:07:25;0.80;99.90
23283;DHT22;11810;51.178;3.878;2022-12-18T14:11:22;0.70;99.90
23283;DHT22;11810;51.178;3.878;2022-12-18T14:14:19;0.90;99.90
23283;DHT22;11810;51.178;3.878;2022-12-18T14:16:46;0.90;99.90
23283;DHT22;11810;51.178;3.878;2022-12-18T14:19:17;1.00;99.90
23283;DHT22;11810;51.178;3.878;2022-12-18T14:21:47;1.00;99.90
23283;DHT22;11810;51.178;3.878;2022-12-18T14:24:20;0.90;99.90
23283;DHT22;11810;51.178;3.878;2022-12-18T14:26:48;0.90;99.90
23283;DHT22;11810;51.178;3.878;2022-12-18T14:29:23;0.90;99.90
23283;DHT22;11810;51.178;3.878;2022-12-18T14:34:34;0.90;99.90
23283;DHT22;11810;51.178;3.878;2022-12-18T14:37:00;1.00;99.90
23283;DHT22;11810;51.178;3.878;2022-12-18T14:39:26;0.90;99.90
23283;DHT22;11810;51.178;3.878;2022-12-18T14:41:52;1.00;99.90
23283;DHT22;11810;51.178;3.878;2022-12-18T14:44:18;1.00;99.90
23283;DHT22;11810;51.178;3.878;2022-12-18T14:46:49;1.00;99.90
23283;DHT22;11810;51.178;3.878;2022-12-18T14:49:31;0.90;99.90
23283;DHT22;11810;51.178;3.878;2022-12-18T14:52:06;0.90;99.90
23283;DHT22;11810;51.178;3.878;2022-12-18T14:55:25;0.90;99.90
23283;DHT22;11810;51.178;3.878;2022-12-18T14:57:53;1.00;99.90
23283;DHT22;11810;51.178;3.878;2022-12-18T15:00:22;0.90;99.90
23283;DHT22;11810;51.178;3.878;2022-12-18T15:05:29;0.80;99.90
23283;DHT22;11810;51.178;3.878;2022-12-18T15:07:57;0.90;99.90
23283;DHT22;11810;51.178;3.878;2022-12-18T15:10:25;1.00;99.90
23283;DHT22;11810;51.178;3.878;2022-12-18T15:21:27;1.00;99.90
23283;DHT22;11810;51.178;3.878;2022-12-18T15:23:56;1.00;99.90
23283;DHT22;11810;51.178;3.878;2022-12-18T15:28:54;1.00;99.90
23283;DHT22;11810;51.178;3.878;2022-12-18T15:31:30;1.20;99.90
23283;DHT22;11810;51.178;3.878;2022-12-18T15:36:23;0.90;99.90
23283;DHT22;11810;51.178;3.878;2022-12-18T15:38:53;0.90;99.90
23283;DHT22;11810;51.178;3.878;2022-12-18T15:41:21;0.80;99.90
23283;DHT22;11810;51.178;3.878;2022-12-18T15:44:30;1.00;99.90
23283;DHT22;11810;51.178;3.878;2022-12-18T15:47:30;1.00;99.90
23283;DHT22;11810;51.178;3.878;2022-12-18T15:50:31;1.00;99.90
23283;DHT22;11810;51.178;3.878;2022-12-18T15:52:56;0.90;99.90
23283;DHT22;11810;51.178;3.878;2022-12-18T15:55:24;1.00;99.90
23283;DHT22;11810;51.178;3.878;2022-12-18T15:58:09;1.00;99.90
23283;DHT22;11810;51.178;3.878;2022-12-18T16:00:38;1.10;99.90
23283;DHT22;11810;51.178;3.878;2022-12-18T16:03:32;1.10;99.90
23283;DHT22;11810;51.178;3.878;2022-12-18T16:05:57;1.10;99.90
23283;DHT22;11810;51.178;3.878;2022-12-18T16:08:25;1.00;99.90
23283;DHT22;11810;51.178;3.878;2022-12-18T16:10:51;1.10;99.90
23283;DHT22;11810;51.178;3.878;2022-12-18T16:13:18;1.10;99.90
23283;DHT22;11810;51.178;3.878;2022-12-18T16:16:34;1.20;99.90
23283;DHT22;11810;51.178;3.878;2022-12-18T16:20:34;1.30;99.90
23283;DHT22;11810;51.178;3.878;2022-12-18T16:24:35;1.00;99.90
23283;DHT22;11810;51.178;3.878;2022-12-18T16:27:02;1.00;99.90
23283;DHT22;11810;51.178;3.878;2022-12-18T16:29:28;1.20;99.90
23283;DHT22;11810;51.178;3.878;2022-12-18T16:31:59;1.20;99.90
23283;DHT22;11810;51.178;3.878;2022-12-18T16:34:30;1.10;99.90
23283;DHT22;11810;51.178;3.878;2022-12-18T16:36:58;1.20;99.90
23283;DHT22;11810;51.178;3.878;2022-12-18T16:39:25;1.20;99.90
23283;DHT22;11810;51.178;3.878;2022-12-18T16:41:51;1.20;99.90
23283;DHT22;11810;51.178;3.878;2022-12-18T16:44:17;1.10;99.90
23283;DHT22;11810;51.178;3.878;2022-12-18T16:46:43;1.00;99.90
23283;DHT22;11810;51.178;3.878;2022-12-18T16:49:11;1.00;99.90
23283;DHT22;11810;51.178;3.878;2022-12-18T16:51:37;1.10;99.90
23283;DHT22;11810;51.178;3.878;2022-12-18T16:54:03;1.20;99.90
23283;DHT22;11810;51.178;3.878;2022-12-18T16:56:29;1.40;99.90
23283;DHT22;11810;51.178;3.878;2022-12-18T16:59:39;1.40;99.90
23283;DHT22;11810;51.178;3.878;2022-12-18T17:02:05;1.30;99.90
23283;DHT22;11810;51.178;3.878;2022-12-18T17:04:31;1.20;99.90
23283;DHT22;11810;51.178;3.878;2022-12-18T17:07:40;1.20;99.90
23283;DHT22;11810;51.178;3.878;2022-12-18T17:10:06;1.10;99.90
23283;DHT22;11810;51.178;3.878;2022-12-18T17:12:32;1.20;99.90
23283;DHT22;11810;51.178;3.878;2022-12-18T17:15:34;1.40;99.90
23283;DHT22;11810;51.178;3.878;2022-12-18T17:18:00;1.40;99.90
23283;DHT22;11810;51.178;3.878;2022-12-18T17:20:25;1.40;99.90
23283;DHT22;11810;51.178;3.878;2022-12-18T17:22:51;1.30;99.90
23283;DHT22;11810;51.178;3.878;2022-12-18T17:25:16;1.40;99.90
23283;DHT22;11810;51.178;3.878;2022-12-18T17:27:42;1.40;99.90
23283;DHT22;11810;51.178;3.878;2022-12-18T17:30:08;1.60;99.90
23283;DHT22;11810;51.178;3.878;2022-12-18T17:32:34;1.50;99.90
23283;DHT22;11810;51.178;3.878;2022-12-18T17:35:00;1.60;99.90
23283;DHT22;11810;51.178;3.878;2022-12-18T17:37:25;1.50;99.90
23283;DHT22;11810;51.178;3.878;2022-12-18T17:39:52;1.60;99.90
23283;DHT22;11810;51.178;3.878;2022-12-18T17:42:45;1.60;99.90
23283;DHT22;11810;51.178;3.878;2022-12-18T17:45:11;1.60;99.90
23283;DHT22;11810;51.178;3.878;2022-12-18T17:47:37;1.60;99.90
23283;DHT22;11810;51.178;3.878;2022-12-18T17:50:03;1.70;99.90
23283;DHT22;11810;51.178;3.878;2022-12-18T17:52:46;1.60;99.90
23283;DHT22;11810;51.178;3.878;2022-12-18T17:55:12;1.50;99.90
23283;DHT22;11810;51.178;3.878;2022-12-18T17:57:37;1.50;99.90
23283;DHT22;11810;51.178;3.878;2022-12-18T18:00:04;1.50;99.90
23283;DHT22;11810;51.178;3.878;2022-12-18T18:02:30;1.50;99.90
23283;DHT22;11810;51.178;3.878;2022-12-18T18:04:56;1.60;99.90
23283;DHT22;11810;51.178;3.878;2022-12-18T18:07:22;1.60;99.90
23283;DHT22;11810;51.178;3.878;2022-12-18T18:09:47;1.70;99.90
23283;DHT22;11810;51.178;3.878;2022-12-18T18:12:13;1.70;99.90
23283;DHT22;11810;51.178;3.878;2022-12-18T18:16:50;1.60;99.90
23283;DHT22;11810;51.178;3.878;2022-12-18T18:19:21;1.70;99.90
23283;DHT22;11810;51.178;3.878;2022-12-18T18:21:50;1.60;99.90
23283;DHT22;11810;51.178;3.878;2022-12-18T18:24:18;1.70;99.90
23283;DHT22;11810;51.178;3.878;2022-12-18T18:26:44;1.70;99.90
23283;DHT22;11810;51.178;3.878;2022-12-18T18:29:19;1.70;99.90
23283;DHT22;11810;51.178;3.878;2022-12-18T18:31:45;1.70;99.90
23283;DHT22;11810;51.178;3.878;2022-12-18T18:35:51;1.60;99.90
23283;DHT22;11810;51.178;3.878;2022-12-18T18:38:17;1.70;99.90
23283;DHT22;11810;51.178;3.878;2022-12-18T18:40:43;1.80;99.90
23283;DHT22;11810;51.178;3.878;2022-12-18T18:43:09;1.80;99.90
23283;DHT22;11810;51.178;3.878;2022-12-18T18:45:35;1.90;99.90
23283;DHT22;11810;51.178;3.878;2022-12-18T18:48:01;1.90;99.90
23283;DHT22;11810;51.178;3.878;2022-12-18T18:51:54;1.80;99.90
23283;DHT22;11810;51.178;3.878;2022-12-18T18:54:21;1.90;99.90
23283;DHT22;11810;51.178;3.878;2022-12-18T18:56:50;1.90;99.90
23283;DHT22;11810;51.178;3.878;2022-12-18T18:59:16;1.90;99.90
23283;DHT22;11810;51.178;3.878;2022-12-18T19:01:42;1.90;99.90
23283;DHT22;11810;51.178;3.878;2022-12-18T19:04:08;1.90;99.90
23283;DHT22;11810;51.178;3.878;2022-12-18T19:06:34;1.90;99.90
23283;DHT22;11810;51.178;3.878;2022-12-18T19:09:02;1.90;99.90
23283;DHT22;11810;51.178;3.878;2022-12-18T19:11:28;1.90;99.90
23283;DHT22;11810;51.178;3.878;2022-12-18T19:14:14;1.90;99.90
23283;DHT22;11810;51.178;3.878;2022-12-18T19:16:40;2.00;99.90
23283;DHT22;11810;51.178;3.878;2022-12-18T19:19:07;1.90;99.90
23283;DHT22;11810;51.178;3.878;2022-12-18T19:23:39;2.00;99.90
23283;DHT22;11810;51.178;3.878;2022-12-18T19:26:06;1.90;99.90
23283;DHT22;11810;51.178;3.878;2022-12-18T19:28:33;1.90;99.90
23283;DHT22;11810;51.178;3.878;2022-12-18T19:31:02;2.00;99.90
23283;DHT22;11810;51.178;3.878;2022-12-18T19:33:31;2.00;99.90
23283;DHT22;11810;51.178;3.878;2022-12-18T19:35:57;1.90;99.90
23283;DHT22;11810;51.178;3.878;2022-12-18T19:39:33;1.80;99.90
23283;DHT22;11810;51.178;3.878;2022-12-18T19:41:59;1.80;99.90
23283;DHT22;11810;51.178;3.878;2022-12-18T19:44:24;1.80;99.90
23283;DHT22;11810;51.178;3.878;2022-12-18T19:46:51;1.80;99.90
23283;DHT22;11810;51.178;3.878;2022-12-18T19:49:17;1.70;99.90
23283;DHT22;11810;51.178;3.878;2022-12-18T19:53:34;1.90;99.90
23283;DHT22;11810;51.178;3.878;2022-12-18T19:56:11;2.00;99.90
23283;DHT22;11810;51.178;3.878;2022-12-18T19:58:37;2.00;99.90
23283;DHT22;11810;51.178;3.878;2022-12-18T20:01:04;2.00;99.90
23283;DHT22;11810;51.178;3.878;2022-12-18T20:03:30;1.90;99.90
23283;DHT22;11810;51.178;3.878;2022-12-18T20:06:06;2.10;99.90
23283;DHT22;11810;51.178;3.878;2022-12-18T20:10:09;2.10;99.90
23283;DHT22;11810;51.178;3.878;2022-12-18T20:12:37;2.10;99.90
23283;DHT22;11810;51.178;3.878;2022-12-18T20:15:33;1.90;99.90
23283;DHT22;11810;51.178;3.878;2022-12-18T20:17:59;1.90;99.90
23283;DHT22;11810;51.178;3.878;2022-12-18T20:20:25;2.00;99.90
23283;DHT22;11810;51.178;3.878;2022-12-18T20:22:51;2.00;99.90
23283;DHT22;11810;51.178;3.878;2022-12-18T20:25:17;1.90;99.90
23283;DHT22;11810;51.178;3.878;2022-12-18T20:27:42;2.00;99.90
23283;DHT22;11810;51.178;3.878;2022-12-18T20:32:06;2.10;99.90
23283;DHT22;11810;51.178;3.878;2022-12-18T20:34:32;2.10;99.90
23283;DHT22;11810;51.178;3.878;2022-12-18T20:36:58;2.00;99.90
23283;DHT22;11810;51.178;3.878;2022-12-18T20:39:35;2.00;99.90
23283;DHT22;11810;51.178;3.878;2022-12-18T20:43:07;2.00;99.90
23283;DHT22;11810;51.178;3.878;2022-12-18T20:45:33;2.00;99.90
23283;DHT22;11810;51.178;3.878;2022-12-18T20:47:59;2.00;99.90
23283;DHT22;11810;51.178;3.878;2022-12-18T20:50:26;2.10;99.90
23283;DHT22;11810;51.178;3.878;2022-12-18T20:52:51;2.20;99.90
23283;DHT22;11810;51.178;3.878;2022-12-18T20:55:17;2.20;99.90
23283;DHT22;11810;51.178;3.878;2022-12-18T20:57:44;2.10;99.90
23283;DHT22;11810;51.178;3.878;2022-12-18T21:00:10;2.10;99.90
23283;DHT22;11810;51.178;3.878;2022-12-18T21:02:36;2.10;99.90
23283;DHT22;11810;51.178;3.878;2022-12-18T21:05:02;2.10;99.90
23283;DHT22;11810;51.178;3.878;2022-12-18T21:08:10;2.10;99.90
23283;DHT22;11810;51.178;3.878;2022-12-18T21:10:36;2.20;99.90
23283;DHT22;11810;51.178;3.878;2022-12-18T21:13:02;2.20;99.90
23283;DHT22;11810;51.178;3.878;2022-12-18T21:16:11;2.20;99.90
23283;DHT22;11810;51.178;3.878;2022-12-18T21:18:37;2.20;99.90
23283;DHT22;11810;51.178;3.878;2022-12-18T21:21:03;2.20;99.90
23283;DHT22;11810;51.178;3.878;2022-12-18T21:23:29;2.30;99.90
23283;DHT22;11810;51.178;3.878;2022-12-18T21:26:26;2.20;99.90
23283;DHT22;11810;51.178;3.878;2022-12-18T21:28:57;2.20;99.90
23283;DHT22;11810;51.178;3.878;2022-12-18T21:31:26;2.30;99.90
23283;DHT22;11810;51.178;3.878;2022-12-18T21:33:52;2.20;99.90
23283;DHT22;11810;51.178;3.878;2022-12-18T21:36:18;2.30;99.90